createdAt,value
2022-10-23T00:00:41.763Z,77.32
2022-10-23T00:03:09.346Z,78.39
2022-10-23T00:05:41.440Z,77.65
2022-10-23T00:08:09.557Z,77.64
2022-10-23T00:10:37.371Z,77.34
2022-10-23T00:13:06.459Z,77.67
2022-10-23T00:15:36.758Z,77.62
2022-10-23T00:18:05.111Z,77.95
2022-10-23T00:20:32.809Z,77.70
2022-10-23T00:23:00.568Z,77.80
2022-10-23T00:25:28.335Z,77.47
2022-10-23T00:27:56.071Z,77.78
2022-10-23T00:30:25.246Z,77.70
2022-10-23T00:32:53.029Z,77.89
2022-10-23T00:35:20.782Z,77.73
2022-10-23T00:37:48.643Z,77.95
2022-10-23T00:40:16.412Z,77.61
2022-10-23T00:42:44.378Z,77.50
2022-10-23T00:45:20.714Z,77.82
2022-10-23T00:47:50.264Z,77.60
2022-10-23T00:50:18.506Z,77.85
2022-10-23T00:52:49.572Z,77.81
2022-10-23T00:55:19.302Z,77.84
2022-10-23T00:57:48.999Z,78.15
2022-10-23T01:00:20.641Z,78.11
2022-10-23T01:02:50.186Z,78.50
2022-10-23T01:05:18.621Z,78.19
2022-10-23T01:07:53.829Z,78.27
2022-10-23T01:10:31.482Z,78.13
2022-10-23T01:13:04.944Z,78.20
2022-10-23T01:15:38.491Z,78.23
2022-10-23T01:18:17.984Z,78.58
2022-10-23T01:20:49.325Z,78.57
2022-10-23T01:23:55.060Z,78.83
2022-10-23T01:26:50.278Z,78.83
2022-10-23T01:29:25.661Z,78.45
2022-10-23T01:32:00.002Z,78.65
2022-10-23T01:34:33.137Z,78.88
2022-10-23T01:37:03.267Z,78.45
2022-10-23T01:39:36.957Z,78.70
2022-10-23T01:42:09.703Z,78.95
2022-10-23T01:44:43.798Z,78.93
2022-10-23T01:47:14.177Z,79.23
2022-10-23T01:49:43.886Z,78.99
2022-10-23T01:52:15.131Z,79.30
2022-10-23T01:54:45.854Z,79.29
2022-10-23T01:57:17.882Z,79.27
2022-10-23T01:59:50.739Z,79.16
2022-10-23T02:02:20.115Z,79.20
2022-10-23T02:04:57.503Z,79.17
2022-10-23T02:07:25.657Z,79.39
2022-10-23T02:09:53.672Z,79.04
2022-10-23T02:15:07.203Z,79.40
2022-10-23T02:17:47.275Z,79.66
2022-10-23T02:20:21.252Z,79.29
2022-10-23T02:22:58.565Z,79.34
2022-10-23T02:25:33.292Z,79.40
2022-10-23T02:28:04.365Z,80.90
2022-10-23T02:30:36.690Z,79.48
2022-10-23T02:33:06.330Z,79.74
2022-10-23T02:35:34.305Z,79.36
2022-10-23T02:38:02.074Z,81.18
2022-10-23T02:40:36.897Z,79.78
2022-10-23T02:43:08.027Z,81.68
2022-10-23T02:45:46.216Z,80.06
2022-10-23T02:48:20.178Z,80.16
2022-10-23T02:51:01.905Z,79.67
2022-10-23T02:53:38.287Z,80.13
2022-10-23T02:56:14.191Z,79.96
2022-10-23T02:58:46.833Z,80.14
2022-10-23T03:01:19.163Z,79.67
2022-10-23T03:03:52.549Z,80.24
2022-10-23T03:06:20.659Z,79.63
2022-10-23T03:08:53.430Z,80.11
2022-10-23T03:11:21.230Z,79.80
2022-10-23T03:13:48.969Z,80.07
2022-10-23T03:16:18.000Z,80.32
2022-10-23T03:18:45.666Z,80.39
2022-10-23T03:21:13.469Z,80.74
2022-10-23T03:23:41.233Z,80.64
2022-10-23T03:26:09.128Z,80.98
2022-10-23T03:28:36.855Z,80.76
2022-10-23T03:31:05.191Z,80.68
2022-10-23T03:33:34.236Z,80.98
2022-10-23T03:36:02.004Z,80.83
2022-10-23T03:38:29.926Z,80.52
2022-10-23T03:40:57.616Z,81.22
2022-10-23T03:43:25.294Z,81.13
2022-10-23T03:45:53.049Z,80.76
2022-10-23T03:48:20.737Z,81.23
2022-10-23T03:50:49.922Z,80.95
2022-10-23T03:53:17.646Z,81.45
2022-10-23T03:55:45.939Z,81.14
2022-10-23T03:58:13.720Z,81.35
2022-10-23T04:03:14.139Z,81.43
2022-10-23T04:05:42.133Z,81.52
2022-10-23T04:08:12.668Z,83.03
2022-10-23T04:10:41.871Z,80.95
2022-10-23T04:13:09.580Z,81.22
2022-10-23T04:15:37.326Z,81.52
2022-10-23T04:18:05.419Z,81.33
2022-10-23T04:20:33.086Z,82.60
2022-10-23T04:23:00.760Z,81.52
2022-10-23T04:25:29.873Z,81.09
2022-10-23T04:27:57.505Z,81.45
2022-10-23T04:30:25.194Z,81.74
2022-10-23T04:32:53.305Z,81.54
2022-10-23T04:35:21.232Z,83.15
2022-10-23T04:37:48.951Z,81.91
2022-10-23T04:40:16.781Z,81.22
2022-10-23T04:42:45.878Z,81.37
2022-10-23T04:45:13.735Z,81.58
2022-10-23T04:47:41.377Z,81.69
2022-10-23T04:50:09.308Z,81.70
2022-10-23T04:52:37.011Z,81.89
2022-10-23T04:55:05.347Z,81.69
2022-10-23T04:57:33.063Z,81.48
2022-10-23T05:00:02.349Z,81.66
2022-10-23T05:02:30.098Z,81.48
2022-10-23T05:04:57.799Z,81.88
2022-10-23T05:07:25.505Z,81.68
2022-10-23T05:09:53.245Z,81.83
2022-10-23T05:12:20.937Z,81.78
2022-10-23T05:14:48.650Z,81.82
2022-10-23T05:17:22.537Z,81.89
2022-10-23T05:19:54.531Z,82.26
2022-10-23T05:22:25.243Z,81.48
2022-10-23T05:24:53.219Z,81.82
2022-10-23T05:27:21.023Z,82.02
2022-10-23T05:29:51.871Z,82.00
2022-10-23T05:34:54.537Z,82.08
2022-10-23T05:37:22.743Z,81.78
2022-10-23T05:39:50.460Z,82.14
2022-10-23T05:42:18.246Z,81.61
2022-10-23T05:44:45.969Z,82.08
2022-10-23T05:47:13.683Z,81.70
2022-10-23T05:49:42.811Z,81.95
2022-10-23T05:52:12.111Z,82.05
2022-10-23T05:54:39.906Z,82.11
2022-10-23T05:57:07.762Z,81.95
2022-10-23T05:59:35.545Z,82.10
2022-10-23T06:02:03.359Z,81.66
2022-10-23T06:04:31.251Z,81.80
2022-10-23T06:07:00.299Z,82.01
2022-10-23T06:09:27.993Z,82.31
2022-10-23T06:11:55.695Z,82.35
2022-10-23T06:14:23.379Z,82.13
2022-10-23T06:16:51.117Z,82.19
2022-10-23T06:19:18.801Z,82.24
2022-10-23T06:21:46.553Z,81.92
2022-10-23T06:24:15.669Z,82.28
2022-10-23T06:26:43.300Z,82.59
2022-10-23T06:29:10.993Z,82.47
2022-10-23T06:31:38.669Z,82.60
2022-10-23T06:34:07.059Z,82.50
2022-10-23T06:36:34.964Z,82.38
2022-10-23T06:39:02.628Z,82.60
2022-10-23T06:41:31.750Z,82.10
2022-10-23T06:43:59.407Z,82.28
2022-10-23T06:46:29.854Z,82.66
2022-10-23T06:48:57.497Z,82.23
2022-10-23T06:51:29.578Z,82.29
2022-10-23T06:53:57.848Z,82.51
2022-10-23T06:56:29.383Z,82.37
2022-10-23T06:58:58.483Z,82.35
2022-10-23T07:01:26.409Z,82.49
2022-10-23T07:03:54.029Z,84.05
2022-10-23T07:06:21.689Z,83.02
2022-10-23T07:08:49.654Z,82.45
2022-10-23T07:11:18.217Z,84.28
2022-10-23T07:13:46.706Z,82.59
2022-10-23T07:16:17.877Z,82.52
2022-10-23T07:18:45.999Z,82.82
2022-10-23T07:21:13.788Z,82.69
2022-10-23T07:23:41.549Z,82.63
2022-10-23T07:26:12.075Z,82.77
2022-10-23T07:28:41.379Z,82.73
2022-10-23T07:31:09.659Z,82.32
2022-10-23T07:33:39.741Z,82.43
2022-10-23T07:36:09.228Z,82.33
2022-10-23T07:38:37.260Z,82.37
2022-10-23T07:41:06.859Z,83.99
2022-10-23T07:43:36.741Z,82.67
2022-10-23T07:46:04.868Z,82.75
2022-10-23T07:48:32.569Z,82.60
2022-10-23T07:51:03.559Z,82.36
2022-10-23T07:53:31.338Z,82.38
2022-10-23T07:56:01.258Z,82.46
2022-10-23T07:58:29.942Z,82.37
2022-10-23T08:00:59.451Z,82.46
2022-10-23T08:03:27.185Z,82.52
2022-10-23T08:05:55.737Z,82.51
2022-10-23T08:08:25.367Z,82.55
2022-10-23T08:10:55.100Z,82.59
2022-10-23T08:13:23.269Z,82.41
2022-10-23T08:15:53.074Z,82.30
2022-10-23T08:18:21.060Z,82.31
2022-10-23T08:20:51.112Z,84.03
2022-10-23T08:23:20.248Z,82.31
2022-10-23T08:25:49.396Z,82.09
2022-10-23T08:28:17.013Z,82.49
2022-10-23T08:30:44.708Z,82.40
2022-10-23T08:33:12.458Z,82.54
2022-10-23T08:35:40.608Z,82.59
2022-10-23T08:38:08.370Z,82.40
2022-10-23T08:40:36.862Z,82.25
2022-10-23T08:43:14.223Z,82.30
2022-10-23T08:45:46.218Z,82.25
2022-10-23T08:48:20.146Z,82.42
2022-10-23T08:50:54.005Z,82.19
2022-10-23T08:53:27.329Z,82.24
2022-10-23T08:56:02.189Z,82.16
2022-10-23T08:58:37.310Z,82.28
2022-10-23T09:01:27.805Z,82.43
2022-10-23T09:03:55.648Z,82.03
2022-10-23T09:06:37.875Z,82.06
2022-10-23T09:09:37.301Z,82.21
2022-10-23T09:12:10.195Z,81.84
2022-10-23T09:15:13.867Z,81.91
2022-10-23T09:17:44.024Z,81.74
2022-10-23T09:20:21.510Z,81.77
2022-10-23T09:22:50.852Z,81.81
2022-10-23T09:25:21.174Z,81.79
2022-10-23T09:27:56.165Z,81.85
2022-10-23T09:30:35.019Z,81.97
2022-10-23T09:33:15.102Z,81.81
2022-10-23T09:35:54.573Z,81.94
2022-10-23T09:38:28.870Z,82.04
2022-10-23T09:40:57.076Z,82.06
2022-10-23T09:43:27.483Z,81.82
2022-10-23T09:46:01.857Z,82.16
2022-10-23T09:48:29.900Z,82.13
2022-10-23T09:50:59.444Z,82.10
2022-10-23T09:53:34.941Z,82.00
2022-10-23T09:56:04.995Z,81.96
2022-10-23T09:58:35.813Z,81.96
2022-10-23T10:01:05.825Z,81.90
2022-10-23T10:03:33.637Z,81.72
2022-10-23T10:06:02.857Z,81.81
2022-10-23T10:08:40.306Z,81.78
2022-10-23T10:11:15.509Z,81.75
2022-10-23T10:14:02.609Z,81.66
2022-10-23T10:16:43.969Z,81.57
2022-10-23T10:19:17.376Z,82.83
2022-10-23T10:21:53.994Z,81.61
2022-10-23T10:24:26.011Z,81.48
2022-10-23T10:27:02.637Z,81.42
2022-10-23T10:29:45.731Z,81.35
2022-10-23T10:32:32.093Z,81.43
2022-10-23T10:35:20.437Z,81.29
2022-10-23T10:38:12.589Z,81.35
2022-10-23T10:40:43.727Z,81.29
2022-10-23T10:43:30.660Z,81.23
2022-10-23T10:46:05.044Z,81.17
2022-10-23T10:48:43.248Z,81.15
2022-10-23T10:51:19.501Z,80.95
2022-10-23T10:54:02.480Z,81.10
2022-10-23T10:56:34.868Z,80.91
2022-10-23T10:59:06.942Z,80.75
2022-10-23T11:01:38.309Z,80.87
2022-10-23T11:04:14.827Z,80.66
2022-10-23T11:06:47.226Z,80.71
2022-10-23T11:09:20.927Z,80.60
2022-10-23T11:11:49.875Z,80.50
2022-10-23T11:14:18.681Z,80.39
2022-10-23T11:16:48.979Z,80.58
2022-10-23T11:19:24.731Z,80.36
2022-10-23T11:21:59.387Z,80.45
2022-10-23T11:24:57.343Z,80.43
2022-10-23T11:27:42.519Z,80.46
2022-10-23T11:30:31.733Z,80.25
2022-10-23T11:33:46.816Z,80.14
2022-10-23T11:36:19.276Z,79.96
2022-10-23T11:38:50.068Z,79.51
2022-10-23T11:41:25.358Z,79.56
2022-10-23T11:43:56.972Z,79.10
2022-10-23T11:46:33.241Z,78.81
2022-10-23T11:49:03.134Z,78.34
2022-10-23T11:51:34.812Z,77.90
2022-10-23T11:54:24.332Z,77.70
2022-10-23T11:56:55.649Z,77.25
2022-10-23T11:59:28.931Z,77.18
2022-10-23T12:01:59.079Z,76.98
2022-10-23T12:04:31.632Z,76.83
2022-10-23T12:07:02.756Z,76.49
2022-10-23T12:09:37.352Z,76.46
2022-10-23T12:12:17.887Z,76.48
2022-10-23T12:14:46.905Z,76.35
2022-10-23T12:17:36.895Z,75.72
2022-10-23T12:20:23.760Z,75.92
2022-10-23T12:23:04.069Z,76.05
2022-10-23T12:25:44.485Z,75.97
2022-10-23T12:28:25.716Z,75.85
2022-10-23T12:31:00.408Z,74.75
2022-10-23T12:33:34.136Z,75.84
2022-10-23T12:36:17.868Z,75.69
2022-10-23T12:38:49.726Z,76.15
2022-10-23T12:41:20.103Z,75.94
2022-10-23T12:43:53.919Z,75.86
2022-10-23T12:46:32.461Z,76.11
2022-10-23T12:49:01.145Z,75.78
2022-10-23T12:51:30.334Z,75.40
2022-10-23T12:53:59.469Z,75.48
2022-10-23T12:56:29.489Z,75.57
2022-10-23T12:59:01.394Z,75.46
2022-10-23T13:01:30.973Z,75.37
2022-10-23T13:04:03.575Z,75.57
2022-10-23T13:06:31.309Z,75.43
2022-10-23T13:09:00.512Z,74.75
2022-10-23T13:11:29.568Z,75.61
2022-10-23T13:13:57.201Z,75.66
2022-10-23T13:16:26.947Z,75.37
2022-10-23T13:18:54.610Z,75.61
2022-10-23T13:21:23.294Z,74.45
2022-10-23T13:23:51.719Z,75.62
2022-10-23T13:26:49.920Z,75.57
2022-10-23T13:29:21.698Z,75.57
2022-10-23T13:31:50.016Z,75.63
2022-10-23T13:34:23.058Z,75.33
2022-10-23T13:37:02.487Z,75.27
2022-10-23T13:39:33.028Z,75.14
2022-10-23T13:42:13.380Z,74.88
2022-10-23T13:44:41.615Z,74.45
2022-10-23T13:47:13.389Z,74.29
2022-10-23T13:49:41.100Z,74.21
2022-10-23T13:52:10.704Z,72.82
2022-10-23T13:54:38.318Z,74.19
2022-10-23T13:57:13.799Z,73.83
2022-10-23T13:59:41.442Z,73.92
2022-10-23T14:02:19.010Z,74.04
2022-10-23T14:04:47.213Z,73.98
2022-10-23T14:07:15.109Z,74.17
2022-10-23T14:09:42.738Z,74.13
2022-10-23T14:12:13.520Z,72.72
2022-10-23T14:14:41.205Z,74.08
2022-10-23T14:17:08.855Z,74.32
2022-10-23T14:22:04.963Z,74.40
2022-10-23T14:24:32.436Z,72.98
2022-10-23T14:27:00.053Z,74.31
2022-10-23T14:29:29.162Z,73.99
2022-10-23T14:31:56.765Z,74.11
2022-10-23T14:34:24.385Z,73.74
2022-10-23T14:37:07.496Z,71.78
2022-10-23T14:39:36.565Z,73.32
2022-10-23T14:42:04.207Z,73.63
2022-10-23T14:44:33.041Z,72.33
2022-10-23T14:47:00.826Z,73.89
2022-10-23T14:49:28.450Z,74.11
2022-10-23T14:51:56.129Z,74.24
2022-10-23T14:54:23.625Z,73.07
2022-10-23T14:56:51.253Z,74.30
2022-10-23T14:59:18.884Z,74.52
2022-10-23T15:01:48.624Z,74.43
2022-10-23T15:04:17.029Z,74.51
2022-10-23T15:06:46.651Z,74.53
2022-10-23T15:09:14.902Z,74.57
2022-10-23T15:11:42.754Z,74.71
2022-10-23T15:14:10.389Z,74.76
2022-10-23T15:16:41.456Z,73.74
2022-10-23T15:19:17.371Z,74.75
2022-10-23T15:21:46.735Z,74.91
2022-10-23T15:24:14.654Z,75.13
2022-10-23T15:26:43.286Z,75.29
2022-10-23T15:29:12.149Z,75.19
2022-10-23T15:31:58.828Z,75.17
2022-10-23T15:34:33.177Z,75.48
2022-10-23T15:37:01.045Z,75.54
2022-10-23T15:39:48.344Z,75.52
2022-10-23T15:42:15.991Z,75.61
2022-10-23T15:44:43.615Z,75.74
2022-10-23T15:47:11.336Z,75.87
2022-10-23T15:49:40.473Z,75.80
2022-10-23T15:54:36.686Z,75.91
2022-10-23T15:57:05.498Z,75.93
2022-10-23T15:59:33.432Z,75.98
2022-10-23T16:02:01.185Z,76.16
2022-10-23T16:04:29.530Z,76.23
2022-10-23T16:06:58.514Z,76.11
2022-10-23T16:09:26.147Z,76.17
2022-10-23T16:11:53.782Z,76.29
2022-10-23T16:14:21.441Z,76.32
2022-10-23T16:16:49.156Z,76.40
2022-10-23T16:19:16.586Z,76.64
2022-10-23T16:21:44.229Z,76.34
2022-10-23T16:24:13.384Z,76.45
2022-10-23T16:26:41.984Z,76.33
2022-10-23T16:29:10.282Z,76.46
2022-10-23T16:31:38.157Z,76.54
2022-10-23T16:34:06.728Z,76.59
2022-10-23T16:36:35.406Z,76.53
2022-10-23T16:39:03.743Z,76.74
2022-10-23T16:41:32.805Z,76.57
2022-10-23T16:46:36.347Z,76.77
2022-10-23T16:49:04.540Z,76.82
2022-10-23T16:51:42.910Z,76.80
2022-10-23T16:54:11.235Z,76.87
2022-10-23T16:59:47.563Z,77.00
2022-10-23T17:02:18.669Z,76.86
2022-10-23T17:05:25.315Z,77.26
2022-10-23T17:07:53.148Z,77.14
2022-10-23T17:10:21.021Z,77.13
2022-10-23T17:12:51.973Z,77.03
2022-10-23T17:15:22.266Z,77.18
2022-10-23T17:17:50.103Z,77.32
2022-10-23T17:20:18.091Z,77.13
2022-10-23T17:22:46.060Z,77.30
2022-10-23T17:25:13.822Z,77.16
2022-10-23T17:27:42.636Z,77.77
2022-10-23T17:30:12.867Z,77.26
2022-10-23T17:32:42.578Z,77.28
2022-10-23T17:35:11.545Z,77.42
2022-10-23T17:37:39.721Z,77.37
2022-10-23T17:40:08.733Z,77.46
2022-10-23T17:42:36.853Z,77.17
2022-10-23T17:45:05.119Z,77.53
2022-10-23T17:47:33.361Z,77.33
2022-10-23T17:50:03.419Z,77.41
2022-10-23T17:52:31.612Z,77.40
2022-10-23T17:54:59.646Z,77.33
2022-10-23T17:57:27.614Z,77.25
2022-10-23T17:59:55.709Z,77.10
2022-10-23T18:02:23.863Z,77.17
2022-10-23T18:04:52.114Z,77.11
2022-10-23T18:07:24.264Z,77.13
2022-10-23T18:09:52.476Z,77.07
2022-10-23T18:12:23.516Z,76.96
2022-10-23T18:14:53.796Z,77.16
2022-10-23T18:17:21.946Z,77.21
2022-10-23T18:23:04.744Z,77.07
2022-10-23T18:25:32.691Z,77.12
2022-10-23T18:28:02.480Z,77.24
2022-10-23T18:30:30.887Z,77.05
2022-10-23T18:33:00.095Z,77.11
2022-10-23T18:35:30.702Z,77.21
2022-10-23T18:37:58.485Z,77.11
2022-10-23T18:40:28.090Z,77.84
2022-10-23T18:42:56.370Z,77.14
2022-10-23T18:45:24.234Z,76.98
2022-10-23T18:47:52.440Z,76.95
2022-10-23T18:50:23.502Z,77.24
2022-10-23T18:52:51.465Z,77.13
2022-10-23T18:55:19.510Z,77.10
2022-10-23T18:57:48.783Z,77.39
2022-10-23T19:00:17.077Z,77.13
2022-10-23T19:02:47.665Z,77.33
2022-10-23T19:05:17.972Z,77.38
2022-10-23T19:07:47.230Z,77.21
2022-10-23T19:10:18.007Z,77.33
2022-10-23T19:12:45.919Z,77.61
2022-10-23T19:15:16.546Z,77.84
2022-10-23T19:17:44.406Z,78.20
2022-10-23T19:20:15.559Z,78.45
2022-10-23T19:22:47.605Z,78.67
2022-10-23T19:25:20.567Z,79.28
2022-10-23T19:27:48.930Z,79.65
2022-10-23T19:30:21.916Z,80.20
2022-10-23T19:32:51.020Z,80.92
2022-10-23T19:35:21.289Z,81.56
2022-10-23T19:37:50.317Z,81.95
2022-10-23T19:40:18.268Z,81.92
2022-10-23T19:42:46.116Z,82.01
2022-10-23T19:45:14.505Z,86.30
2022-10-23T19:47:45.255Z,82.30
2022-10-23T19:50:13.646Z,82.48
2022-10-23T19:52:41.718Z,82.43
2022-10-23T19:55:10.258Z,82.28
2022-10-23T19:57:38.277Z,82.36
2022-10-23T20:00:08.490Z,82.32
2022-10-23T20:02:36.971Z,82.39
2022-10-23T20:05:07.674Z,82.78
2022-10-23T20:07:36.079Z,82.24
2022-10-23T20:10:04.817Z,82.55
2022-10-23T20:12:32.739Z,82.47
2022-10-23T20:15:00.665Z,82.40
2022-10-23T20:17:28.329Z,82.37
2022-10-23T20:19:56.591Z,81.87
2022-10-23T20:22:25.639Z,81.42
2022-10-23T20:24:53.503Z,81.03
2022-10-23T20:27:21.190Z,80.80
2022-10-23T20:29:49.238Z,80.58
2022-10-23T20:32:17.400Z,80.51
2022-10-23T20:34:45.070Z,80.57
2022-10-23T20:37:12.686Z,80.75
2022-10-23T20:39:41.774Z,80.71
2022-10-23T20:42:09.496Z,80.47
2022-10-23T20:44:37.130Z,80.28
2022-10-23T20:47:04.823Z,80.27
2022-10-23T20:49:32.463Z,80.39
2022-10-23T20:52:00.141Z,80.24
2022-10-23T20:54:28.684Z,79.21
2022-10-23T20:56:58.804Z,79.97
2022-10-23T20:59:26.920Z,79.90
2022-10-23T21:01:56.420Z,80.05
2022-10-23T21:04:27.486Z,79.84
2022-10-23T21:07:14.577Z,79.87
2022-10-23T21:09:42.622Z,79.77
2022-10-23T21:12:11.642Z,79.89
2022-10-23T21:14:39.306Z,79.87
2022-10-23T21:17:08.493Z,79.82
2022-10-23T21:19:36.569Z,79.74
2022-10-23T21:22:04.469Z,79.76
2022-10-23T21:24:31.941Z,79.62
2022-10-23T21:26:59.597Z,79.67
2022-10-23T21:29:28.689Z,79.82
2022-10-23T21:31:58.799Z,79.85
2022-10-23T21:34:27.628Z,79.85
2022-10-23T21:39:43.530Z,79.81
2022-10-23T21:42:11.368Z,80.00
2022-10-23T21:44:40.432Z,80.02
2022-10-23T21:47:08.170Z,79.88
2022-10-23T21:49:35.826Z,80.04
2022-10-23T21:52:03.503Z,80.10
2022-10-23T21:54:31.089Z,80.21
2022-10-23T21:56:58.736Z,80.05
2022-10-23T21:59:30.279Z,80.32
2022-10-23T22:02:00.898Z,80.17
2022-10-23T22:04:28.573Z,80.38
2022-10-23T22:06:56.241Z,80.42
2022-10-23T22:09:24.598Z,80.16
2022-10-23T22:11:53.271Z,80.30
2022-10-23T22:14:21.798Z,80.43
2022-10-23T22:16:50.090Z,80.23
2022-10-23T22:19:21.306Z,80.27
2022-10-23T22:21:50.139Z,80.34
2022-10-23T22:24:18.491Z,80.45
2022-10-23T22:26:49.202Z,80.36
2022-10-23T22:29:20.480Z,80.78
2022-10-23T22:31:49.774Z,81.02
2022-10-23T22:34:27.082Z,81.17
2022-10-23T22:37:10.081Z,80.98
2022-10-23T22:39:38.378Z,81.14
2022-10-23T22:42:06.081Z,81.50
2022-10-23T22:44:33.734Z,81.49
2022-10-23T22:47:01.338Z,81.34
2022-10-23T22:49:30.556Z,81.46
2022-10-23T22:51:58.174Z,81.46
2022-10-23T22:54:25.871Z,81.26
2022-10-23T22:56:53.522Z,81.53
2022-10-23T22:59:21.162Z,81.42
2022-10-23T23:01:50.201Z,81.52
2022-10-23T23:04:37.398Z,81.61
2022-10-23T23:07:08.023Z,81.65
2022-10-23T23:09:38.289Z,81.40
2022-10-23T23:12:06.135Z,81.40
2022-10-23T23:14:33.773Z,82.94
2022-10-23T23:17:01.441Z,81.33
2022-10-23T23:19:29.057Z,81.24
2022-10-23T23:21:57.786Z,81.51
2022-10-23T23:24:27.244Z,81.63
2022-10-23T23:26:54.885Z,81.86
2022-10-23T23:29:22.648Z,81.80
2022-10-23T23:31:50.370Z,81.77
2022-10-23T23:34:18.053Z,81.89
2022-10-23T23:36:45.724Z,81.87
2022-10-23T23:39:13.351Z,82.09
2022-10-23T23:41:42.380Z,81.89
2022-10-23T23:44:10.593Z,81.85
2022-10-23T23:46:38.196Z,81.80
2022-10-23T23:49:05.851Z,81.84
2022-10-23T23:51:33.498Z,81.63
2022-10-23T23:54:01.136Z,81.64
2022-10-23T23:56:29.105Z,81.46
2022-10-23T23:58:58.467Z,81.58
